createdAt,value
2023-02-07T00:02:07.817Z,6.72
2023-02-07T00:04:39.691Z,7.40
2023-02-07T00:07:09.888Z,8.52
2023-02-07T00:09:40.166Z,11.27
2023-02-07T00:12:10.517Z,12.23
2023-02-07T00:14:43.798Z,7.97
2023-02-07T00:17:13.801Z,4.75
2023-02-07T00:19:45.658Z,5.65
2023-02-07T00:22:15.656Z,5.78
2023-02-07T00:24:45.501Z,6.78
2023-02-07T00:27:15.764Z,6.10
2023-02-07T00:29:45.850Z,7.22
2023-02-07T00:32:16.123Z,8.93
2023-02-07T00:34:49.106Z,7.68
2023-02-07T00:37:20.560Z,8.57
2023-02-07T00:39:50.884Z,9.43
2023-02-07T00:42:20.930Z,6.47
2023-02-07T00:44:50.960Z,8.73
2023-02-07T00:47:21.031Z,9.13
2023-02-07T00:49:51.034Z,7.35
2023-02-07T00:52:21.538Z,6.70
2023-02-07T00:54:51.494Z,7.57
2023-02-07T00:57:21.431Z,7.32
2023-02-07T00:59:51.478Z,4.28
2023-02-07T01:02:21.630Z,6.80
2023-02-07T01:04:52.555Z,8.48
2023-02-07T01:07:24.090Z,6.53
2023-02-07T01:09:54.094Z,8.05
2023-02-07T01:12:25.752Z,3.58
2023-02-07T01:14:55.749Z,4.90
2023-02-07T01:17:25.927Z,7.85
2023-02-07T01:20:02.519Z,8.18
2023-02-07T01:22:32.780Z,6.63
2023-02-07T01:25:02.895Z,5.72
2023-02-07T01:27:33.001Z,7.13
2023-02-07T01:30:04.787Z,6.90
2023-02-07T01:32:35.910Z,5.32
2023-02-07T01:35:08.197Z,10.02
2023-02-07T01:37:38.249Z,6.45
2023-02-07T01:40:09.827Z,7.07
2023-02-07T01:42:40.055Z,4.57
2023-02-07T01:45:20.236Z,7.43
2023-02-07T01:47:51.432Z,14.90
2023-02-07T01:50:22.305Z,10.95
2023-02-07T01:52:53.250Z,10.95
2023-02-07T01:55:31.902Z,5.32
2023-02-07T01:58:04.581Z,8.80
2023-02-07T02:00:35.950Z,6.50
2023-02-07T02:03:07.030Z,7.10
2023-02-07T02:05:38.814Z,7.82
2023-02-07T02:08:08.986Z,6.38
2023-02-07T02:10:50.057Z,11.77
2023-02-07T02:13:40.550Z,8.93
2023-02-07T02:16:31.689Z,10.25
2023-02-07T02:19:42.970Z,8.00
2023-02-07T02:22:37.305Z,11.07
2023-02-07T02:25:28.614Z,11.80
2023-02-07T02:28:37.617Z,8.18
2023-02-07T02:31:15.207Z,9.13
2023-02-07T02:34:05.006Z,7.40
2023-02-07T02:36:53.215Z,9.80
2023-02-07T02:39:41.248Z,11.75
2023-02-07T02:42:40.248Z,8.98
2023-02-07T02:45:20.606Z,10.80
2023-02-07T02:47:52.343Z,9.00
2023-02-07T02:50:29.555Z,9.77
2023-02-07T02:52:59.761Z,11.65
2023-02-07T02:55:56.292Z,8.75
2023-02-07T02:58:45.030Z,7.78
2023-02-07T03:01:47.893Z,14.02
2023-02-07T03:04:33.012Z,8.90
2023-02-07T03:07:17.525Z,8.57
2023-02-07T03:09:57.321Z,9.82
2023-02-07T03:13:00.355Z,10.93
2023-02-07T03:15:59.254Z,10.38
2023-02-07T03:19:00.382Z,7.72
2023-02-07T03:22:03.719Z,10.18
2023-02-07T03:24:37.850Z,7.43
2023-02-07T03:27:13.028Z,9.32
2023-02-07T03:29:48.787Z,11.30
2023-02-07T03:32:21.031Z,10.85
2023-02-07T03:35:03.087Z,10.35
2023-02-07T03:37:39.235Z,10.95
2023-02-07T03:40:11.723Z,8.43
2023-02-07T03:43:05.671Z,14.75
2023-02-07T03:45:36.337Z,10.93
2023-02-07T03:48:06.618Z,15.10
2023-02-07T03:50:36.836Z,11.32
2023-02-07T03:53:07.098Z,10.30
2023-02-07T03:55:37.746Z,10.65
2023-02-07T03:58:09.682Z,7.00
2023-02-07T04:00:40.217Z,10.88
2023-02-07T04:03:10.204Z,7.75
2023-02-07T04:05:40.617Z,8.30
2023-02-07T04:08:10.649Z,11.13
2023-02-07T04:10:40.430Z,9.27
2023-02-07T04:13:10.556Z,13.02
2023-02-07T04:15:40.823Z,8.35
2023-02-07T04:18:11.232Z,7.30
2023-02-07T04:20:41.344Z,8.40
2023-02-07T04:23:11.322Z,7.50
2023-02-07T04:25:41.420Z,11.75
2023-02-07T04:28:11.696Z,11.52
2023-02-07T04:30:41.760Z,12.07
2023-02-07T04:33:11.783Z,16.02
2023-02-07T04:35:41.918Z,9.25
2023-02-07T04:38:11.910Z,10.02
2023-02-07T04:40:41.732Z,8.75
2023-02-07T04:43:11.571Z,7.35
2023-02-07T04:45:41.566Z,9.25
2023-02-07T04:48:11.573Z,8.07
2023-02-07T04:50:41.552Z,7.03
2023-02-07T04:53:11.536Z,9.18
2023-02-07T04:55:41.620Z,7.65
2023-02-07T04:58:11.653Z,10.02
2023-02-07T05:00:41.959Z,8.63
2023-02-07T05:03:12.204Z,9.18
2023-02-07T05:05:43.869Z,7.93
2023-02-07T05:08:15.159Z,8.50
2023-02-07T05:10:45.122Z,5.07
2023-02-07T05:13:14.986Z,8.90
2023-02-07T05:15:44.989Z,7.78
2023-02-07T05:18:14.987Z,7.20
2023-02-07T05:20:45.511Z,8.55
2023-02-07T05:23:16.055Z,8.68
2023-02-07T05:25:46.161Z,6.65
2023-02-07T05:28:15.976Z,7.53
2023-02-07T05:30:45.997Z,9.48
2023-02-07T05:33:16.034Z,7.30
2023-02-07T05:35:47.388Z,7.15
2023-02-07T05:38:20.509Z,6.65
2023-02-07T05:40:51.009Z,6.57
2023-02-07T05:43:21.131Z,8.68
2023-02-07T05:45:51.270Z,7.35
2023-02-07T05:48:21.509Z,8.80
2023-02-07T05:50:51.485Z,5.80
2023-02-07T05:53:21.478Z,7.45
2023-02-07T05:55:53.880Z,6.18
2023-02-07T05:58:23.868Z,8.52
2023-02-07T06:00:57.298Z,6.93
2023-02-07T06:03:27.341Z,6.43
2023-02-07T06:05:57.597Z,9.90
2023-02-07T06:08:27.613Z,5.78
2023-02-07T06:10:57.626Z,7.78
2023-02-07T06:13:27.781Z,5.97
2023-02-07T06:15:57.665Z,6.30
2023-02-07T06:18:27.647Z,6.35
2023-02-07T06:20:57.434Z,6.18
2023-02-07T06:23:27.670Z,4.65
2023-02-07T06:25:57.678Z,8.43
2023-02-07T06:28:27.798Z,9.18
2023-02-07T06:30:58.128Z,7.60
2023-02-07T06:33:28.223Z,8.40
2023-02-07T06:35:58.222Z,4.32
2023-02-07T06:38:28.492Z,7.03
2023-02-07T06:40:58.456Z,4.22
2023-02-07T06:43:28.632Z,9.52
2023-02-07T06:45:58.617Z,9.50
2023-02-07T06:48:28.625Z,4.82
2023-02-07T06:50:58.834Z,5.28
2023-02-07T06:53:30.736Z,4.97
2023-02-07T06:56:02.945Z,5.15
2023-02-07T06:58:32.962Z,7.25
2023-02-07T07:01:04.446Z,8.80
2023-02-07T07:03:34.456Z,6.70
2023-02-07T07:06:04.260Z,6.90
2023-02-07T07:08:35.704Z,14.30
2023-02-07T07:11:06.262Z,9.80
2023-02-07T07:13:36.597Z,6.93
2023-02-07T07:16:07.078Z,7.80
2023-02-07T07:18:39.525Z,6.07
2023-02-07T07:21:11.108Z,7.40
2023-02-07T07:23:41.103Z,4.22
2023-02-07T07:26:11.310Z,5.50
2023-02-07T07:28:42.214Z,9.68
2023-02-07T07:31:13.610Z,10.48
2023-02-07T07:33:44.615Z,7.47
2023-02-07T07:36:14.962Z,7.95
2023-02-07T07:38:47.463Z,9.23
2023-02-07T07:41:18.192Z,9.43
2023-02-07T07:43:48.326Z,7.05
2023-02-07T07:46:18.306Z,7.60
2023-02-07T07:48:48.520Z,6.35
2023-02-07T07:51:18.359Z,9.52
2023-02-07T07:53:48.170Z,7.65
2023-02-07T07:56:18.377Z,9.48
2023-02-07T07:58:49.598Z,6.03
2023-02-07T08:01:19.857Z,4.90
2023-02-07T08:03:49.915Z,9.68
2023-02-07T08:06:19.912Z,7.13
2023-02-07T08:08:49.845Z,32.65
2023-02-07T08:11:22.900Z,22.33
2023-02-07T08:13:52.775Z,4.90
2023-02-07T08:16:23.158Z,10.60
2023-02-07T08:18:53.139Z,9.10
2023-02-07T08:21:23.238Z,5.53
2023-02-07T08:23:54.109Z,4.20
2023-02-07T08:26:24.091Z,4.57
2023-02-07T08:28:54.259Z,3.10
2023-02-07T08:31:24.375Z,9.43
2023-02-07T08:33:55.152Z,5.00
2023-02-07T08:36:25.398Z,11.13
2023-02-07T08:38:55.838Z,12.45
2023-02-07T08:41:26.077Z,4.97
2023-02-07T08:43:56.055Z,4.30
2023-02-07T08:46:26.974Z,4.40
2023-02-07T08:48:57.269Z,6.05
2023-02-07T08:51:27.315Z,7.57
2023-02-07T08:53:57.458Z,5.97
2023-02-07T08:56:27.673Z,5.15
2023-02-07T08:58:57.651Z,7.18
2023-02-07T09:01:28.224Z,6.63
2023-02-07T09:03:59.953Z,6.07
2023-02-07T09:06:29.923Z,5.28
2023-02-07T09:09:00.533Z,11.57
2023-02-07T09:11:30.634Z,6.32
2023-02-07T09:14:00.758Z,8.20
2023-02-07T09:16:31.467Z,6.35
2023-02-07T09:19:01.473Z,4.30
2023-02-07T09:21:32.694Z,4.70
2023-02-07T09:24:02.921Z,8.55
2023-02-07T09:26:36.457Z,7.15
2023-02-07T09:29:07.903Z,7.32
2023-02-07T09:31:38.040Z,5.88
2023-02-07T09:34:08.742Z,5.03
2023-02-07T09:36:41.115Z,12.80
2023-02-07T09:39:11.334Z,19.02
2023-02-07T09:41:49.811Z,14.52
2023-02-07T09:44:49.347Z,5.47
2023-02-07T09:47:25.586Z,8.20
2023-02-07T09:50:22.656Z,8.27
2023-02-07T09:52:58.530Z,9.02
2023-02-07T09:55:36.608Z,8.45
2023-02-07T09:58:39.985Z,10.27
2023-02-07T10:01:20.341Z,15.23
2023-02-07T10:04:16.247Z,8.02
2023-02-07T10:06:51.519Z,12.43
2023-02-07T10:09:27.141Z,18.40
2023-02-07T10:12:35.173Z,11.20
2023-02-07T10:15:26.624Z,9.05
2023-02-07T10:18:33.445Z,7.45
2023-02-07T10:21:19.103Z,8.40
2023-02-07T10:24:10.877Z,7.18
2023-02-07T10:26:54.330Z,9.85
2023-02-07T10:29:48.433Z,7.43
2023-02-07T10:32:26.365Z,12.32
2023-02-07T10:35:03.127Z,9.88
2023-02-07T10:37:40.089Z,12.95
2023-02-07T10:40:26.301Z,6.95
2023-02-07T10:43:04.474Z,9.35
2023-02-07T10:45:34.985Z,9.00
2023-02-07T10:48:20.981Z,12.20
2023-02-07T10:50:51.105Z,7.60
2023-02-07T10:53:55.366Z,9.85
2023-02-07T10:56:29.180Z,12.07
2023-02-07T10:59:00.755Z,16.27
2023-02-07T11:01:34.090Z,11.73
2023-02-07T11:04:04.456Z,17.13
2023-02-07T11:06:36.009Z,10.48
2023-02-07T11:09:25.011Z,11.65
2023-02-07T11:11:56.637Z,11.90
2023-02-07T11:14:29.312Z,12.63
2023-02-07T11:17:02.409Z,9.23
2023-02-07T11:19:33.228Z,13.55
2023-02-07T11:22:32.663Z,11.05
2023-02-07T11:25:07.163Z,9.75
2023-02-07T11:27:42.952Z,12.73
2023-02-07T11:30:23.404Z,13.38
2023-02-07T11:33:07.018Z,10.98
2023-02-07T11:35:38.138Z,7.80
2023-02-07T11:38:16.074Z,8.82
2023-02-07T11:40:48.781Z,9.07
2023-02-07T11:43:24.145Z,7.93
2023-02-07T11:46:00.215Z,7.05
2023-02-07T11:48:33.362Z,8.02
2023-02-07T11:51:06.047Z,12.60
2023-02-07T11:53:58.454Z,5.07
2023-02-07T11:56:40.953Z,6.20
2023-02-07T11:59:29.393Z,3.83
2023-02-07T12:02:04.654Z,5.90
2023-02-07T12:04:38.865Z,6.78
2023-02-07T12:07:15.305Z,6.95
2023-02-07T12:10:15.552Z,5.93
2023-02-07T12:12:52.952Z,10.32
2023-02-07T12:15:32.124Z,8.05
2023-02-07T12:18:08.036Z,4.43
2023-02-07T12:20:48.610Z,7.93
2023-02-07T12:23:47.682Z,6.95
2023-02-07T12:26:33.366Z,8.18
2023-02-07T12:29:24.255Z,4.50
2023-02-07T12:32:09.532Z,3.58
2023-02-07T12:34:50.818Z,4.00
2023-02-07T12:37:23.830Z,2.42
2023-02-07T12:40:22.811Z,4.82
2023-02-07T12:43:02.702Z,6.20
2023-02-07T12:45:41.622Z,3.25
2023-02-07T12:48:11.919Z,6.07
2023-02-07T12:50:47.150Z,3.28
2023-02-07T12:53:35.360Z,5.72
2023-02-07T12:56:16.729Z,3.78
2023-02-07T12:59:18.279Z,4.07
2023-02-07T13:02:29.395Z,3.35
2023-02-07T13:05:32.489Z,4.40
2023-02-07T13:08:37.353Z,5.00
2023-02-07T13:11:30.814Z,5.90
2023-02-07T13:14:17.823Z,4.97
2023-02-07T13:17:22.357Z,4.25
2023-02-07T13:20:22.661Z,3.33
2023-02-07T13:22:59.222Z,4.90
2023-02-07T13:25:42.686Z,5.10
2023-02-07T13:28:31.478Z,4.35
2023-02-07T13:31:02.825Z,4.85
2023-02-07T13:33:37.760Z,12.63
2023-02-07T13:36:37.880Z,5.18
2023-02-07T13:39:23.996Z,5.97
2023-02-07T13:42:51.740Z,5.50
2023-02-07T13:45:56.005Z,6.00
2023-02-07T13:48:56.399Z,9.85
2023-02-07T13:51:33.354Z,3.35
2023-02-07T13:54:38.357Z,6.93
2023-02-07T13:58:01.254Z,5.13
2023-02-07T14:00:36.599Z,74.05
2023-02-07T14:03:07.798Z,90.07
2023-02-07T14:05:44.552Z,45.97
2023-02-07T14:08:18.864Z,34.05
2023-02-07T14:10:58.474Z,35.78
2023-02-07T14:13:28.660Z,4.25
2023-02-07T14:16:06.179Z,3.33
2023-02-07T14:18:41.499Z,7.32
2023-02-07T14:21:20.691Z,4.03
2023-02-07T14:24:00.059Z,3.88
2023-02-07T14:26:42.106Z,3.03
2023-02-07T14:29:23.908Z,4.95
2023-02-07T14:32:23.751Z,3.85
2023-02-07T14:35:06.021Z,2.65
2023-02-07T14:38:15.538Z,3.67
2023-02-07T14:40:45.814Z,4.63
2023-02-07T14:43:16.246Z,2.35
2023-02-07T14:45:58.288Z,7.20
2023-02-07T14:48:52.310Z,4.10
2023-02-07T14:51:31.751Z,3.55
2023-02-07T14:54:19.437Z,2.92
2023-02-07T14:57:04.131Z,4.95
2023-02-07T14:59:34.141Z,7.07
2023-02-07T15:02:34.577Z,8.10
2023-02-07T15:05:29.133Z,5.97
2023-02-07T15:08:04.976Z,5.55
2023-02-07T15:10:45.614Z,3.65
2023-02-07T15:13:23.932Z,3.65
2023-02-07T15:16:22.114Z,2.80
2023-02-07T15:19:00.050Z,4.65
2023-02-07T15:21:44.321Z,2.83
2023-02-07T15:27:05.678Z,5.20
2023-02-07T15:29:39.445Z,4.57
2023-02-07T15:32:42.934Z,4.40
2023-02-07T15:35:19.768Z,2.65
2023-02-07T15:37:51.235Z,3.78
2023-02-07T15:40:26.406Z,4.15
2023-02-07T15:42:59.153Z,4.22
2023-02-07T15:45:32.484Z,5.63
2023-02-07T15:48:08.312Z,4.03
2023-02-07T15:50:39.826Z,5.60
2023-02-07T15:53:12.101Z,3.95
2023-02-07T15:55:48.306Z,4.38
2023-02-07T15:58:36.847Z,3.88
2023-02-07T16:01:16.132Z,6.85
2023-02-07T16:03:49.118Z,5.05
2023-02-07T16:06:22.097Z,3.65
2023-02-07T16:08:54.812Z,4.28
2023-02-07T16:11:28.774Z,5.43
2023-02-07T16:14:11.950Z,5.70
2023-02-07T16:16:43.188Z,4.25
2023-02-07T16:19:18.293Z,4.15
2023-02-07T16:22:28.702Z,7.13
2023-02-07T16:25:03.638Z,6.18
2023-02-07T16:27:36.035Z,5.65
2023-02-07T16:30:06.754Z,5.05
2023-02-07T16:32:37.219Z,4.60
2023-02-07T16:35:28.321Z,5.60
2023-02-07T16:37:58.277Z,7.78
2023-02-07T16:40:28.582Z,4.97
2023-02-07T16:42:59.269Z,5.13
2023-02-07T16:45:30.890Z,4.95
2023-02-07T16:48:01.918Z,4.80
2023-02-07T16:50:32.790Z,5.93
2023-02-07T16:53:04.268Z,4.93
2023-02-07T16:55:36.954Z,5.05
2023-02-07T16:58:09.686Z,7.22
2023-02-07T17:00:40.130Z,5.65
2023-02-07T17:03:16.600Z,6.60
2023-02-07T17:05:46.603Z,4.97
2023-02-07T17:08:19.816Z,6.43
2023-02-07T17:10:54.175Z,6.88
2023-02-07T17:13:24.378Z,5.30
2023-02-07T17:15:54.587Z,5.53
2023-02-07T17:18:24.570Z,5.75
2023-02-07T17:20:55.812Z,4.93
2023-02-07T17:23:29.616Z,11.27
2023-02-07T17:26:00.780Z,6.68
2023-02-07T17:28:30.839Z,7.88
2023-02-07T17:31:01.136Z,5.90
2023-02-07T17:33:31.275Z,5.45
2023-02-07T17:36:01.166Z,6.07
2023-02-07T17:38:31.973Z,6.38
2023-02-07T17:41:02.023Z,5.20
2023-02-07T17:43:31.981Z,6.15
2023-02-07T17:46:02.087Z,5.85
2023-02-07T17:48:33.680Z,6.97
2023-02-07T17:51:03.823Z,12.50
2023-02-07T17:53:33.854Z,5.75
2023-02-07T17:56:04.773Z,5.90
2023-02-07T17:58:39.191Z,5.78
2023-02-07T18:01:09.302Z,6.65
2023-02-07T18:03:39.488Z,6.57
2023-02-07T18:06:14.258Z,5.18
2023-02-07T18:08:45.796Z,7.22
2023-02-07T18:11:16.605Z,7.80
2023-02-07T18:13:49.138Z,8.43
2023-02-07T18:16:25.466Z,5.80
2023-02-07T18:18:58.452Z,7.25
2023-02-07T18:21:29.002Z,7.15
2023-02-07T18:23:59.203Z,6.57
2023-02-07T18:26:29.298Z,6.72
2023-02-07T18:28:59.136Z,6.50
2023-02-07T18:31:30.382Z,7.15
2023-02-07T18:34:00.211Z,6.53
2023-02-07T18:36:35.179Z,7.85
2023-02-07T18:39:05.204Z,8.95
2023-02-07T18:41:35.580Z,8.93
2023-02-07T18:44:05.951Z,6.57
2023-02-07T18:46:37.006Z,6.57
2023-02-07T18:49:07.226Z,6.35
2023-02-07T18:51:39.793Z,8.35
2023-02-07T18:54:10.060Z,6.72
2023-02-07T18:56:42.430Z,7.43
2023-02-07T18:59:12.588Z,6.97
2023-02-07T19:01:42.638Z,6.45
2023-02-07T19:04:12.622Z,5.28
2023-02-07T19:06:42.890Z,6.95
2023-02-07T19:09:13.794Z,7.40
2023-02-07T19:11:44.284Z,6.43
2023-02-07T19:14:22.135Z,7.95
2023-02-07T19:19:25.936Z,7.47
2023-02-07T19:21:56.851Z,5.53
2023-02-07T19:24:27.846Z,7.18
2023-02-07T19:27:00.031Z,7.22
2023-02-07T19:29:31.204Z,7.50
2023-02-07T19:32:04.479Z,7.60
2023-02-07T19:34:35.979Z,6.90
2023-02-07T19:37:07.690Z,6.50
2023-02-07T19:39:38.298Z,6.85
2023-02-07T19:42:08.437Z,7.70
2023-02-07T19:44:38.424Z,8.43
2023-02-07T19:47:08.673Z,7.63
2023-02-07T19:49:38.688Z,7.45
2023-02-07T19:52:08.953Z,7.22
2023-02-07T19:54:39.075Z,7.75
2023-02-07T19:57:09.080Z,6.97
2023-02-07T19:59:39.540Z,8.15
2023-02-07T20:02:09.721Z,6.80
2023-02-07T20:04:39.589Z,5.65
2023-02-07T20:07:10.385Z,7.63
2023-02-07T20:09:40.609Z,8.70
2023-02-07T20:12:10.691Z,6.10
2023-02-07T20:14:40.651Z,9.02
2023-02-07T20:17:10.557Z,6.28
2023-02-07T20:19:40.426Z,6.95
2023-02-07T20:22:10.503Z,7.38
2023-02-07T20:24:40.640Z,7.07
2023-02-07T20:27:10.926Z,5.78
2023-02-07T20:29:41.184Z,7.75
2023-02-07T20:32:14.785Z,7.05
2023-02-07T20:34:45.282Z,7.57
2023-02-07T20:37:15.314Z,7.43
2023-02-07T20:39:45.271Z,7.35
2023-02-07T20:42:15.550Z,6.78
2023-02-07T20:44:45.559Z,6.32
2023-02-07T20:47:15.557Z,7.57
2023-02-07T20:49:45.746Z,7.68
2023-02-07T20:52:15.627Z,6.78
2023-02-07T20:54:45.690Z,6.20
2023-02-07T20:57:15.894Z,7.28
2023-02-07T20:59:45.779Z,10.55
2023-02-07T21:02:15.701Z,6.30
2023-02-07T21:04:45.593Z,7.95
2023-02-07T21:07:15.425Z,10.20
2023-02-07T21:09:45.599Z,10.70
2023-02-07T21:12:15.852Z,8.45
2023-02-07T21:14:45.786Z,9.90
2023-02-07T21:17:15.631Z,8.10
2023-02-07T21:19:45.702Z,7.68
2023-02-07T21:22:15.745Z,9.75
2023-02-07T21:24:45.741Z,8.07
2023-02-07T21:27:15.760Z,7.07
2023-02-07T21:29:45.827Z,9.32
2023-02-07T21:32:15.829Z,8.13
2023-02-07T21:34:45.993Z,7.53
2023-02-07T21:37:16.031Z,5.85
2023-02-07T21:39:46.242Z,7.20
2023-02-07T21:42:16.315Z,7.13
2023-02-07T21:44:46.338Z,8.30
2023-02-07T21:47:16.547Z,8.95
2023-02-07T21:49:46.546Z,8.20
2023-02-07T21:52:17.625Z,6.82
2023-02-07T21:54:47.861Z,9.27
2023-02-07T21:57:17.844Z,6.95
2023-02-07T21:59:48.246Z,8.57
2023-02-07T22:02:19.507Z,6.28
2023-02-07T22:04:49.670Z,10.23
2023-02-07T22:07:19.846Z,9.13
2023-02-07T22:09:52.873Z,12.55
2023-02-07T22:12:23.030Z,10.48
2023-02-07T22:14:52.938Z,7.82
2023-02-07T22:17:24.527Z,13.20
2023-02-07T22:19:54.663Z,11.45
2023-02-07T22:22:25.595Z,11.15
2023-02-07T22:24:55.803Z,9.65
2023-02-07T22:27:25.859Z,11.73
2023-02-07T22:29:55.871Z,11.25
2023-02-07T22:32:26.042Z,14.60
2023-02-07T22:34:56.970Z,10.02
2023-02-07T22:37:27.245Z,11.35
2023-02-07T22:39:57.313Z,10.00
2023-02-07T22:42:27.562Z,12.48
2023-02-07T22:44:57.578Z,13.60
2023-02-07T22:47:28.244Z,10.02
2023-02-07T22:49:58.478Z,12.82
2023-02-07T22:52:28.316Z,9.85
2023-02-07T22:54:58.335Z,13.18
2023-02-07T22:57:28.471Z,10.93
2023-02-07T23:00:01.919Z,10.50
2023-02-07T23:02:32.191Z,14.20
2023-02-07T23:05:02.221Z,13.63
2023-02-07T23:07:32.053Z,14.55
2023-02-07T23:10:01.931Z,15.80
2023-02-07T23:12:31.759Z,11.32
2023-02-07T23:15:02.770Z,13.90
2023-02-07T23:17:33.030Z,14.07
2023-02-07T23:20:03.064Z,12.82
2023-02-07T23:22:33.148Z,10.82
2023-02-07T23:25:03.372Z,10.57
2023-02-07T23:27:33.436Z,9.77
2023-02-07T23:30:03.473Z,7.85
2023-02-07T23:32:33.517Z,13.25
2023-02-07T23:35:03.594Z,13.68
2023-02-07T23:37:33.792Z,28.63
2023-02-07T23:40:03.835Z,13.15
2023-02-07T23:42:33.801Z,12.88
2023-02-07T23:45:03.806Z,14.18
2023-02-07T23:47:33.787Z,12.70
2023-02-07T23:50:03.849Z,19.17
2023-02-07T23:52:33.831Z,32.42
2023-02-07T23:55:03.871Z,10.77
2023-02-07T23:57:33.821Z,10.77
